Airport Weather Around the Area


KLVN - Mpls/Airlake, Lakeville, MN, USA
Distance from station: S 5mi, 8km
Updated: Tue, 17-Oct-2017 6:32pm CDT
Clear
Clear
 Wind from calm
Wind: Calm
Temperature: 55°F , 13°C
Dew Point: 45°F , 7°C
Humidity: 67%
Barometer: 29.94 inHg , 1013.9 hPa
Clouds: Clear
Visibility: 10 miles , 16 km
2017/10/17 23:32 KLVN 172332Z AUTO 00000KT 10SM CLR 13/07 A2994 RMK AO2
KMSP - MSP International, Minneapolis, MN, USA
Distance from station: N 13mi, 20km
Updated: Tue, 17-Oct-2017 6:53pm CDT
Few Clouds
Few Clouds
 Wind from SSE
Wind: SSE 6 mph , 9 km/h
Temperature: 66°F , 19°C
Dew Point: 43°F , 6°C
Humidity: 43%
Barometer: 29.92 inHg , 1013.2 hPa
Clouds: Few Clouds
Visibility: 10 miles , 16 km
Cloud details: Few Clouds 25000 ft
2017/10/17 23:53 KMSP 172353Z 16005KT 10SM FEW250 19/06 A2992 RMK AO2 SLP133 T01890056 10228 20183 57005
 
KSGS - South St Paul/Fleming Field, So. St. Paul, MN, USA
Distance from station: NE 14mi, 22km
Updated: Tue, 17-Oct-2017 6:53pm CDT
Clear
Clear
 Wind from calm
Wind: Calm
Temperature: 61°F , 16°C
Dew Point: 46°F , 8°C
Humidity: 59%
Barometer: 29.92 inHg , 1013.2 hPa
Clouds: Clear
Visibility: 10 miles , 16 km
2017/10/17 23:53 KSGS 172353Z AUTO 00000KT 10SM CLR 16/08 A2992 RMK AO2 T01600075 10230 20160
KFCM - Mpls/Flying Cloud, Eden Prairie, MN, USA
Distance from station: NW 15mi, 24km
Updated: Tue, 17-Oct-2017 6:53pm CDT
Clear
Clear
 Wind from SSE
Wind: SSE 6 mph , 9 km/h
Temperature: 64°F , 18°C
Dew Point: 41°F , 5°C
Humidity: 43%
Barometer: 29.91 inHg , 1012.9 hPa
Clouds: Clear
Visibility: 10 miles , 16 km
2017/10/17 23:53 KFCM 172353Z 15005KT 10SM CLR 18/05 A2991 RMK AO2 SLP129 T01830050 10233 20178 58005
 
KSTP - St. Paul Downtown, St. Paul, MN, USA
Distance from station: NNE 18mi, 29km
Updated: Tue, 17-Oct-2017 6:53pm CDT
Clear
Clear
 Wind from ENE
Wind: ENE 3 mph , 6 km/h
Temperature: 59°F , 15°C
Dew Point: 48°F , 9°C
Humidity: 68%
Barometer: 29.93 inHg , 1013.5 hPa
Clouds: Clear
Visibility: 10 miles , 16 km
2017/10/17 23:53 KSTP 172353Z 07003KT 10SM CLR 15/09 A2993 RMK AO2 SLP135 T01500089 10228 20139 56005
KSYN - Stanton, Minnesota, USA
Distance from station: SE 18mi, 29km
Updated: Tue, 17-Oct-2017 6:52pm CDT
Clear
Clear
 Wind from S
Wind: S 3 mph , 6 km/h
Temperature: 63°F , 17°C
Dew Point: 43°F , 6°C
Humidity: 49%
Barometer: 29.93 inHg , 1013.5 hPa
Clouds: Clear
Visibility: 10 miles , 16 km
2017/10/17 23:52 KSYN 172352Z AUTO 19003KT 10SM CLR 17/06 A2993 RMK AO2 T01670059
 
KMIC - Mlps/Crystal, MN, USA
Distance from station: NNW 26mi, 42km
Updated: Tue, 17-Oct-2017 6:53pm CDT
Clear
Clear
 Wind from SSE
Wind: SSE 3 mph , 6 km/h
Temperature: 61°F , 16°C
Dew Point: 43°F , 6°C
Humidity: 52%
Barometer: 29.90 inHg , 1012.5 hPa
Clouds: Clear
Visibility: 10 miles , 16 km
2017/10/17 23:53 KMIC 172353Z 15003KT 10SM CLR 16/06 A2990 RMK AO2 SLP129 T01610061 10222 20161 58006
KFBL - Faribault Municipal, MN, USA
Distance from station: S 27mi, 43km
Updated: Tue, 17-Oct-2017 6:54pm CDT
Clear
Clear
 Wind from calm
Wind: Calm
Temperature: 64°F , 18°C
Dew Point: 43°F , 6°C
Humidity: 46%
Barometer: 29.95 inHg , 1014.2 hPa
Clouds: Clear
Visibility: 10 miles , 16 km
2017/10/17 23:54 KFBL 172354Z AUTO 00000KT 10SM CLR 18/06 A2995 RMK AO2
 
K21D - Lake Elmo, MN, USA
Distance from station: NE 27mi, 44km
Updated: Tue, 17-Oct-2017 6:52pm CDT
Clear
Clear
 Wind from calm
Wind: Calm
Temperature: 59°F , 15°C
Dew Point: 46°F , 8°C
Humidity: 63%
Barometer: 29.93 inHg , 1013.5 hPa
Clouds: Clear
Visibility: 10 miles , 16 km
2017/10/17 23:52 K21D 172352Z AUTO 00000KT 10SM CLR 15/08 A2993 RMK AO2
KANE - Anoka Co./Blaine, MN, USA
Distance from station: 0 30mi, 48km
Updated: Tue, 17-Oct-2017 6:50pm CDT
Few Clouds
Few Clouds
 Wind from S
Wind: S 5 mph , 7 km/h
Temperature: 61°F , 16°C
Dew Point: 46°F , 8°C
Humidity: 59%
Barometer: 29.91 inHg , 1012.9 hPa
Clouds: Few Clouds
Visibility: 10 miles , 16 km
Cloud details: Few Clouds 25000 ft
2017/10/17 23:50 KANE 172350Z 17004KT 10SM FEW250 16/08 A2991
 
KRGK - Red Wing, MN, USA
Distance from station: ESE 37mi, 60km
Updated: Tue, 17-Oct-2017 6:56pm CDT
Clear
Clear
 Wind from calm
Wind: Calm
Temperature: 57°F , 14°C
Dew Point: 45°F , 7°C
Humidity: 63%
Barometer: 29.94 inHg , 1013.9 hPa
Clouds: Clear
Visibility: 10 miles , 16 km
2017/10/17 23:56 KRGK 172356Z AUTO 00000KT 10SM CLR 14/07 A2994 RMK AO2